createdAt,value
2017-09-29T00:02:26.600Z,10.30
2017-09-29T00:07:54.742Z,9.20
2017-09-29T00:13:22.885Z,10.53
2017-09-29T00:18:51.005Z,9.20
2017-09-29T00:24:19.143Z,9.70
2017-09-29T00:29:47.273Z,8.47
2017-09-29T00:35:15.413Z,9.37
2017-09-29T00:40:44.313Z,9.20
2017-09-29T00:46:12.450Z,9.53
2017-09-29T00:51:41.376Z,9.37
2017-09-29T00:57:09.605Z,8.70
2017-09-29T01:02:37.773Z,8.17
2017-09-29T01:08:05.901Z,7.73
2017-09-29T01:13:34.798Z,8.80
2017-09-29T01:19:02.947Z,8.47
2017-09-29T01:24:31.073Z,8.60
2017-09-29T01:29:59.215Z,8.40
2017-09-29T01:35:27.346Z,7.50
2017-09-29T01:40:55.486Z,6.90
2017-09-29T01:46:23.648Z,7.57
2017-09-29T01:51:51.789Z,6.27
2017-09-29T01:57:20.733Z,8.53
2017-09-29T02:02:48.908Z,8.23
2017-09-29T02:08:17.827Z,9.00
2017-09-29T02:13:45.956Z,7.70
2017-09-29T02:19:14.867Z,6.67
2017-09-29T02:24:43.009Z,6.70
2017-09-29T02:30:11.195Z,7.10
2017-09-29T02:35:39.351Z,7.33
2017-09-29T02:41:07.506Z,7.00
2017-09-29T02:46:35.654Z,6.80
2017-09-29T02:52:03.798Z,6.73
2017-09-29T02:57:33.791Z,7.07
2017-09-29T03:03:04.657Z,7.20
2017-09-29T03:08:32.802Z,7.13
2017-09-29T03:14:00.960Z,7.40
2017-09-29T03:19:30.175Z,7.70
2017-09-29T03:24:58.314Z,6.03
2017-09-29T03:30:26.508Z,7.87
2017-09-29T03:35:55.396Z,5.70
2017-09-29T03:41:23.536Z,6.60
2017-09-29T03:46:52.528Z,6.07
2017-09-29T03:52:21.357Z,6.47
2017-09-29T03:57:51.951Z,6.20
2017-09-29T04:03:20.074Z,5.80
2017-09-29T04:08:48.369Z,6.53
2017-09-29T04:14:16.513Z,6.20
2017-09-29T04:19:45.425Z,6.80
2017-09-29T04:25:20.425Z,6.63
2017-09-29T04:30:48.852Z,7.60
2017-09-29T04:36:17.066Z,6.30
2017-09-29T04:41:45.201Z,6.60
2017-09-29T04:47:13.342Z,6.20
2017-09-29T04:52:41.492Z,7.03
2017-09-29T04:58:09.629Z,10.43
2017-09-29T05:03:38.551Z,8.70
2017-09-29T05:09:06.691Z,6.83
2017-09-29T05:14:34.834Z,7.23
2017-09-29T05:20:02.955Z,8.10
2017-09-29T05:25:31.103Z,7.63
2017-09-29T05:30:59.252Z,7.30
2017-09-29T05:36:27.394Z,6.70
2017-09-29T05:41:55.553Z,7.20
2017-09-29T05:47:23.719Z,6.10
2017-09-29T05:52:51.860Z,6.60
2017-09-29T05:58:20.029Z,6.60
2017-09-29T06:03:48.180Z,5.80
2017-09-29T06:09:16.341Z,5.60
2017-09-29T06:14:44.493Z,11.60
2017-09-29T06:20:12.638Z,5.53
2017-09-29T06:25:40.776Z,5.37
2017-09-29T06:31:09.661Z,5.87
2017-09-29T06:36:37.798Z,5.93
2017-09-29T06:42:06.712Z,5.50
2017-09-29T06:47:34.837Z,5.47
2017-09-29T06:53:02.971Z,3.90
2017-09-29T06:58:31.129Z,5.10
2017-09-29T07:03:59.265Z,5.20
2017-09-29T07:09:27.396Z,4.73
2017-09-29T07:14:55.561Z,6.27
2017-09-29T07:20:23.685Z,5.20
2017-09-29T07:25:54.830Z,5.30
2017-09-29T07:31:23.666Z,5.27
2017-09-29T07:36:52.595Z,4.90
2017-09-29T07:42:20.778Z,5.97
2017-09-29T07:47:48.934Z,5.30
2017-09-29T07:53:17.074Z,5.10
2017-09-29T07:58:45.211Z,4.80
2017-09-29T08:04:13.356Z,5.00
2017-09-29T08:09:41.506Z,5.87
2017-09-29T08:15:09.646Z,4.63
2017-09-29T08:20:38.548Z,5.20
2017-09-29T08:26:06.681Z,4.10
2017-09-29T08:31:35.572Z,5.37
2017-09-29T08:37:03.710Z,5.00
2017-09-29T08:42:32.628Z,5.20
2017-09-29T08:48:00.768Z,5.00
2017-09-29T08:53:28.919Z,4.97
2017-09-29T08:58:57.062Z,4.57
2017-09-29T09:04:25.203Z,5.10
2017-09-29T09:09:53.353Z,5.90
2017-09-29T09:15:21.523Z,5.40
2017-09-29T09:20:49.669Z,5.00
2017-09-29T09:26:18.442Z,4.60
2017-09-29T09:31:46.581Z,5.23
2017-09-29T09:37:14.722Z,5.90
2017-09-29T09:42:42.866Z,6.30
2017-09-29T09:48:11.014Z,6.10
2017-09-29T09:53:39.154Z,8.00
2017-09-29T09:59:08.081Z,8.03
2017-09-29T10:04:36.221Z,8.23
2017-09-29T10:10:05.177Z,7.77
2017-09-29T10:15:34.096Z,8.73
2017-09-29T10:21:02.271Z,9.00
2017-09-29T10:26:30.407Z,8.73
2017-09-29T10:31:58.556Z,7.40
2017-09-29T10:37:26.681Z,8.20
2017-09-29T10:42:55.581Z,7.10
2017-09-29T10:48:23.731Z,6.47
2017-09-29T10:53:51.905Z,8.67
2017-09-29T10:59:20.059Z,7.10
2017-09-29T11:04:48.194Z,8.30
2017-09-29T11:10:16.343Z,8.67
2017-09-29T11:15:44.501Z,8.73
2017-09-29T11:21:13.428Z,7.90
2017-09-29T11:26:41.589Z,7.03
2017-09-29T11:32:09.744Z,6.90
2017-09-29T11:37:37.873Z,7.30
2017-09-29T11:43:06.035Z,7.20
2017-09-29T11:48:34.157Z,6.33
2017-09-29T11:54:04.026Z,6.07
2017-09-29T11:59:32.171Z,6.47
2017-09-29T12:05:00.327Z,5.67
2017-09-29T12:10:28.472Z,5.73
2017-09-29T12:15:56.610Z,6.60
2017-09-29T12:21:24.769Z,6.57
2017-09-29T12:26:52.908Z,6.97
2017-09-29T12:32:21.864Z,6.67
2017-09-29T12:37:50.115Z,5.43
2017-09-29T12:43:18.258Z,5.57
2017-09-29T12:48:46.425Z,5.87
2017-09-29T12:54:14.575Z,7.37
2017-09-29T12:59:42.713Z,7.53
2017-09-29T13:05:10.869Z,8.33
2017-09-29T13:10:39.024Z,10.40
2017-09-29T13:16:07.231Z,7.87
2017-09-29T13:21:36.152Z,11.43
2017-09-29T13:27:04.284Z,8.37
2017-09-29T13:32:33.205Z,13.07
2017-09-29T13:38:01.344Z,11.70
2017-09-29T13:43:29.509Z,11.17
2017-09-29T13:48:57.648Z,12.57
2017-09-29T13:54:25.812Z,13.40
2017-09-29T13:59:55.266Z,13.10
2017-09-29T14:05:23.795Z,10.67
2017-09-29T14:10:51.938Z,10.83
2017-09-29T14:16:20.111Z,10.73
2017-09-29T14:21:48.259Z,10.60
2017-09-29T14:27:16.426Z,8.60
2017-09-29T14:32:44.579Z,11.70
2017-09-29T14:38:12.759Z,9.17
2017-09-29T14:43:40.906Z,9.13
2017-09-29T14:49:09.075Z,10.27
2017-09-29T14:54:37.225Z,9.60
2017-09-29T15:00:05.350Z,9.97
2017-09-29T15:05:33.504Z,10.90
2017-09-29T15:11:01.670Z,11.60
2017-09-29T15:16:29.820Z,12.00
2017-09-29T15:21:57.979Z,15.83
2017-09-29T15:27:26.128Z,15.13
2017-09-29T15:32:54.295Z,14.67
2017-09-29T15:38:22.494Z,15.27
2017-09-29T15:43:50.652Z,13.87
2017-09-29T15:49:18.798Z,13.40
2017-09-29T15:54:46.961Z,14.07
2017-09-29T16:00:15.112Z,12.50
2017-09-29T16:05:43.254Z,13.07
2017-09-29T16:11:11.402Z,14.70
2017-09-29T16:16:39.542Z,14.87
2017-09-29T16:22:07.691Z,15.80
2017-09-29T16:27:36.588Z,15.80
2017-09-29T16:33:04.743Z,17.10
2017-09-29T16:38:32.884Z,17.63
2017-09-29T16:44:01.021Z,16.20
2017-09-29T16:49:29.922Z,16.43
2017-09-29T16:54:58.108Z,17.73
2017-09-29T17:00:26.257Z,17.47
2017-09-29T17:05:54.398Z,18.90
2017-09-29T17:11:22.543Z,17.80
2017-09-29T17:16:51.461Z,18.37
2017-09-29T17:22:19.614Z,18.33
2017-09-29T17:27:47.780Z,18.83
2017-09-29T17:33:15.908Z,17.20
2017-09-29T17:38:44.075Z,19.53
2017-09-29T17:44:12.224Z,21.20
2017-09-29T17:49:40.367Z,20.13
2017-09-29T17:55:09.299Z,20.87
2017-09-29T18:00:37.438Z,21.97
2017-09-29T18:06:05.582Z,21.77
2017-09-29T18:11:33.760Z,20.43
2017-09-29T18:17:01.904Z,22.57
2017-09-29T18:22:30.051Z,22.83
2017-09-29T18:27:58.194Z,22.97
2017-09-29T18:33:27.488Z,22.00
2017-09-29T18:38:55.636Z,21.20
2017-09-29T18:44:24.723Z,21.53
2017-09-29T18:49:53.638Z,24.17
2017-09-29T18:55:27.745Z,22.90
2017-09-29T19:00:56.692Z,20.87
2017-09-29T19:06:24.960Z,24.53
2017-09-29T19:11:53.888Z,23.90
2017-09-29T19:17:22.807Z,24.30
2017-09-29T19:22:51.112Z,23.93
2017-09-29T19:28:20.047Z,25.40
2017-09-29T19:33:48.252Z,23.77
2017-09-29T19:39:16.432Z,23.27
2017-09-29T19:44:44.579Z,23.77
2017-09-29T19:50:13.548Z,23.33
2017-09-29T19:55:42.471Z,24.77
2017-09-29T20:01:10.637Z,25.00
2017-09-29T20:06:38.884Z,24.00
2017-09-29T20:12:07.102Z,25.83
2017-09-29T20:17:36.030Z,25.27
2017-09-29T20:23:04.156Z,25.93
2017-09-29T20:28:32.302Z,26.07
2017-09-29T20:34:01.213Z,26.90
2017-09-29T20:39:30.116Z,26.67
2017-09-29T20:44:58.262Z,28.20
2017-09-29T20:50:26.410Z,27.80
2017-09-29T20:55:54.550Z,28.70
2017-09-29T21:01:22.702Z,28.97
2017-09-29T21:06:50.891Z,30.33
2017-09-29T21:12:19.034Z,30.80
2017-09-29T21:17:47.178Z,29.57
2017-09-29T21:23:15.314Z,28.67
2017-09-29T21:28:44.242Z,29.57
2017-09-29T21:34:12.390Z,28.60
2017-09-29T21:39:40.557Z,30.07
2017-09-29T21:45:08.847Z,29.50
2017-09-29T21:50:37.052Z,29.13
2017-09-29T21:56:05.211Z,28.57
2017-09-29T22:01:33.362Z,26.97
2017-09-29T22:07:01.511Z,27.07
2017-09-29T22:12:29.674Z,28.13
2017-09-29T22:17:57.801Z,27.13
2017-09-29T22:23:26.714Z,24.40
2017-09-29T22:28:54.855Z,24.90
2017-09-29T22:34:23.020Z,26.53
2017-09-29T22:39:51.170Z,25.37
2017-09-29T22:45:19.326Z,23.97
2017-09-29T22:50:47.470Z,23.37
2017-09-29T22:56:16.378Z,24.83
2017-09-29T23:01:44.520Z,23.23
2017-09-29T23:07:12.670Z,23.27
2017-09-29T23:12:41.592Z,24.53
2017-09-29T23:18:09.724Z,24.23
2017-09-29T23:23:37.861Z,23.47
2017-09-29T23:29:06.040Z,22.67
2017-09-29T23:34:34.184Z,22.40
2017-09-29T23:40:02.305Z,20.87
2017-09-29T23:45:30.451Z,22.10
2017-09-29T23:50:58.592Z,23.03
2017-09-29T23:56:26.719Z,22.50
